Accueil
METAR-TAF:

METAR-TAF

Aéroports :

Aéroport de Trévise

Trévise, Italie

latitude: 45-39N, longitude: 012-11E, altitude: 18 m

Observation

Le bulletin a été fait il y a 25 minutes, à 13:20 UTC
Vent 6 kt de sud-est
Température 27°C
Humidité 48%
Pression 1011 hPa
Visibilité 10 km ou plus
Quelques nuages à une hauteur de 4000 ft

METAR: LIPH 231320Z 13006KT 9999 FEW040 27/15 Q1011

Heure: 15:45 (13:45 UTC)

Prévision

Le bulletin a été fait il y a 2 heures et 45 minutes, à 11:00 UTC
Prévision valable du 23 à 12 UTC au 24 à 12 UTC
Vent 12 kt de nord/nord-est
Visibilité 10 km ou plus
Nuages épars à une hauteur de 4000 ft
Temporairement
du 24 à 06 UTC au 24 à 12 UTC
Visibilité: 4000 m
averses de pluie,

TAF: LIPH 231100Z 2312/2412 02012KT 9999 SCT040 TEMPO 2406/2412 4000 SHRA

Observations et prévisions météorologiques de plus de 4000 aéroports (messages METAR et TAF).

Les stations disponibles sont représentées par des disques jaunes et rouges sur la carte.

Passer la souris dessus pour voir le nom de la station.

Cliquer dessus pour voir les observations et prévisions météorologiques.

Pour changer de carte: cliquez sur les boutons verts avec une croix noire pour zoomer, sur le bouton vert avec un tiret pour effectuer un zoom arrière, ou sur les flèches vertes pour les cartes adjacentes.


METAR-TAF: